createdAt,value
2022-08-20T00:02:13.958Z,24.52
2022-08-20T00:04:42.287Z,24.73
2022-08-20T00:07:10.336Z,24.27
2022-08-20T00:09:39.676Z,26.08
2022-08-20T00:12:08.544Z,24.92
2022-08-20T00:14:37.363Z,24.70
2022-08-20T00:17:07.051Z,26.23
2022-08-20T00:19:35.747Z,25.92
2022-08-20T00:22:03.804Z,25.45
2022-08-20T00:24:31.851Z,24.58
2022-08-20T00:27:01.427Z,26.63
2022-08-20T00:29:29.560Z,25.55
2022-08-20T00:31:57.627Z,27.27
2022-08-20T00:34:25.583Z,27.98
2022-08-20T00:36:53.642Z,27.42
2022-08-20T00:39:21.939Z,25.23
2022-08-20T00:41:51.923Z,25.50
2022-08-20T00:44:23.555Z,25.58
2022-08-20T00:46:52.822Z,26.45
2022-08-20T00:49:25.736Z,27.65
2022-08-20T00:51:57.998Z,25.13
2022-08-20T00:54:31.110Z,25.90
2022-08-20T00:57:02.808Z,26.77
2022-08-20T00:59:35.285Z,26.40
2022-08-20T01:02:05.134Z,26.08
2022-08-20T01:04:35.634Z,26.15
2022-08-20T01:07:06.561Z,25.98
2022-08-20T01:09:57.732Z,25.92
2022-08-20T01:12:25.166Z,26.48
2022-08-20T01:14:54.846Z,25.55
2022-08-20T01:17:25.555Z,25.15
2022-08-20T01:19:58.273Z,26.20
2022-08-20T01:22:50.879Z,26.17
2022-08-20T01:25:26.422Z,25.55
2022-08-20T01:27:57.311Z,25.75
2022-08-20T01:30:28.542Z,25.25
2022-08-20T01:32:57.177Z,26.33
2022-08-20T01:35:26.902Z,25.23
2022-08-20T01:37:55.151Z,27.77
2022-08-20T01:40:49.390Z,27.45
2022-08-20T01:43:19.046Z,26.05
2022-08-20T01:45:49.979Z,25.77
2022-08-20T01:48:19.550Z,25.42
2022-08-20T01:50:55.423Z,27.30
2022-08-20T01:53:33.550Z,25.90
2022-08-20T01:56:02.514Z,25.92
2022-08-20T01:58:33.547Z,26.63
2022-08-20T02:01:01.749Z,27.05
2022-08-20T02:03:33.549Z,27.95
2022-08-20T02:06:05.374Z,28.80
2022-08-20T02:08:33.777Z,29.08
2022-08-20T02:11:02.345Z,28.48
2022-08-20T02:13:32.670Z,26.48
2022-08-20T02:16:00.897Z,26.58
2022-08-20T02:18:29.165Z,25.70
2022-08-20T02:20:57.194Z,25.85
2022-08-20T02:23:25.219Z,25.58
2022-08-20T02:25:53.461Z,24.83
2022-08-20T02:28:21.949Z,24.65
2022-08-20T02:30:55.298Z,24.58
2022-08-20T02:33:25.201Z,23.70
2022-08-20T02:35:56.939Z,25.60
2022-08-20T02:38:25.632Z,25.10
2022-08-20T02:40:53.921Z,23.88
2022-08-20T02:43:22.025Z,24.75
2022-08-20T02:45:51.813Z,24.58
2022-08-20T02:48:23.131Z,23.75
2022-08-20T02:50:53.977Z,24.40
2022-08-20T02:53:22.264Z,24.98
2022-08-20T02:55:50.529Z,23.92
2022-08-20T02:58:19.714Z,24.95
2022-08-20T03:00:48.256Z,25.02
2022-08-20T03:03:22.320Z,25.25
2022-08-20T03:05:52.404Z,25.77
2022-08-20T03:08:21.707Z,24.75
2022-08-20T03:10:50.440Z,23.70
2022-08-20T03:13:19.538Z,24.63
2022-08-20T03:15:49.696Z,24.33
2022-08-20T03:18:20.680Z,26.00
2022-08-20T03:20:52.178Z,25.60
2022-08-20T03:23:22.088Z,24.67
2022-08-20T03:25:50.557Z,24.90
2022-08-20T03:28:19.935Z,23.50
2022-08-20T03:30:48.823Z,23.92
2022-08-20T03:33:20.280Z,24.70
2022-08-20T03:35:48.989Z,24.27
2022-08-20T03:38:20.730Z,24.33
2022-08-20T03:41:02.051Z,22.95
2022-08-20T03:43:30.352Z,24.08
2022-08-20T03:45:58.432Z,24.95
2022-08-20T03:48:27.865Z,24.10
2022-08-20T03:50:56.655Z,25.83
2022-08-20T03:53:24.995Z,25.02
2022-08-20T03:56:00.485Z,25.27
2022-08-20T03:58:36.517Z,25.50
2022-08-20T04:01:07.283Z,25.65
2022-08-20T04:03:38.634Z,25.98
2022-08-20T04:06:07.092Z,25.55
2022-08-20T04:08:35.461Z,24.90
2022-08-20T04:11:03.373Z,25.25
2022-08-20T04:13:31.911Z,24.55
2022-08-20T04:16:03.603Z,24.73
2022-08-20T04:18:32.503Z,24.83
2022-08-20T04:21:01.944Z,24.67
2022-08-20T04:23:31.157Z,26.10
2022-08-20T04:26:00.855Z,26.48
2022-08-20T04:28:30.181Z,25.88
2022-08-20T04:31:00.723Z,25.73
2022-08-20T04:33:33.511Z,25.65
2022-08-20T04:36:06.230Z,24.15
2022-08-20T04:38:48.035Z,24.55
2022-08-20T04:41:22.978Z,27.52
2022-08-20T04:43:54.062Z,26.35
2022-08-20T04:46:23.894Z,26.70
2022-08-20T04:48:51.983Z,25.77
2022-08-20T04:51:23.056Z,26.15
2022-08-20T04:53:53.913Z,26.40
2022-08-20T04:56:24.281Z,25.13
2022-08-20T04:58:53.203Z,25.80
2022-08-20T05:01:21.952Z,24.67
2022-08-20T05:03:50.151Z,25.15
2022-08-20T05:06:18.748Z,24.58
2022-08-20T05:08:48.492Z,24.30
2022-08-20T05:11:33.517Z,26.40
2022-08-20T05:14:05.475Z,26.60
2022-08-20T05:16:37.945Z,25.95
2022-08-20T05:19:06.791Z,25.50
2022-08-20T05:21:35.050Z,26.95
2022-08-20T05:24:05.038Z,25.83
2022-08-20T05:26:34.249Z,25.85
2022-08-20T05:29:04.311Z,26.83
2022-08-20T05:31:33.731Z,25.55
2022-08-20T05:34:02.763Z,27.25
2022-08-20T05:36:30.830Z,25.65
2022-08-20T05:38:59.212Z,28.45
2022-08-20T05:41:30.421Z,27.23
2022-08-20T05:44:01.376Z,27.27
2022-08-20T05:46:32.786Z,26.88
2022-08-20T05:49:01.901Z,26.83
2022-08-20T05:51:30.897Z,28.58
2022-08-20T05:53:59.439Z,28.02
2022-08-20T05:56:31.238Z,27.65
2022-08-20T05:59:02.666Z,26.50
2022-08-20T06:01:31.611Z,29.58
2022-08-20T06:04:28.799Z,28.27
2022-08-20T06:06:59.652Z,28.42
2022-08-20T06:09:31.276Z,27.27
2022-08-20T06:12:02.671Z,27.98
2022-08-20T06:14:31.169Z,28.83
2022-08-20T06:17:05.437Z,29.63
2022-08-20T06:19:33.951Z,29.60
2022-08-20T06:22:02.405Z,28.67
2022-08-20T06:24:45.370Z,28.10
2022-08-20T06:27:16.967Z,29.40
2022-08-20T06:29:44.925Z,28.52
2022-08-20T06:32:13.273Z,28.88
2022-08-20T06:34:50.604Z,27.83
2022-08-20T06:37:20.789Z,29.13
2022-08-20T06:39:48.800Z,29.10
2022-08-20T06:42:20.764Z,28.35
2022-08-20T06:44:49.532Z,28.20
2022-08-20T06:47:18.572Z,26.13
2022-08-20T06:49:47.530Z,26.73
2022-08-20T06:52:17.009Z,26.48
2022-08-20T06:54:45.549Z,24.58
2022-08-20T06:57:13.939Z,22.98
2022-08-20T06:59:43.303Z,21.27
2022-08-20T07:02:11.332Z,22.45
2022-08-20T07:04:39.344Z,23.25
2022-08-20T07:07:07.365Z,23.08
2022-08-20T07:09:35.508Z,23.13
2022-08-20T07:12:03.841Z,23.50
2022-08-20T07:14:31.796Z,22.88
2022-08-20T07:17:03.964Z,21.75
2022-08-20T07:19:38.568Z,23.17
2022-08-20T07:22:08.361Z,23.63
2022-08-20T07:24:40.430Z,21.52
2022-08-20T07:27:09.224Z,21.05
2022-08-20T07:29:51.172Z,23.35
2022-08-20T07:32:37.040Z,22.33
2022-08-20T07:35:11.324Z,20.52
2022-08-20T07:37:41.412Z,23.02
2022-08-20T07:40:13.603Z,21.58
2022-08-20T07:42:41.830Z,19.33
2022-08-20T07:45:12.456Z,17.00
2022-08-20T07:47:43.204Z,16.52
2022-08-20T07:50:13.452Z,17.25
2022-08-20T07:52:41.805Z,17.77
2022-08-20T07:55:12.276Z,17.38
2022-08-20T07:57:41.212Z,17.15
2022-08-20T08:00:10.995Z,18.10
2022-08-20T08:02:40.972Z,17.20
2022-08-20T08:05:10.303Z,18.27
2022-08-20T08:07:39.559Z,19.13
2022-08-20T08:10:14.887Z,18.27
2022-08-20T08:12:47.651Z,20.42
2022-08-20T08:15:19.567Z,20.80
2022-08-20T08:17:50.909Z,21.98
2022-08-20T08:20:19.222Z,20.33
2022-08-20T08:22:47.578Z,19.30
2022-08-20T08:25:17.102Z,19.70
2022-08-20T08:27:47.627Z,20.23
2022-08-20T08:30:17.040Z,21.33
2022-08-20T08:32:59.063Z,21.50
2022-08-20T08:35:28.451Z,20.45
2022-08-20T08:37:56.667Z,20.42
2022-08-20T08:40:24.724Z,19.77
2022-08-20T08:42:58.274Z,21.10
2022-08-20T08:45:31.410Z,19.75
2022-08-20T08:47:59.542Z,19.83
2022-08-20T08:50:53.341Z,18.30
2022-08-20T08:53:25.997Z,18.10
2022-08-20T08:55:54.076Z,18.15
2022-08-20T08:58:22.148Z,19.50
2022-08-20T09:00:55.983Z,20.63
2022-08-20T09:03:29.860Z,19.77
2022-08-20T09:06:01.476Z,19.48
2022-08-20T09:08:44.910Z,19.80
2022-08-20T09:11:12.902Z,19.15
2022-08-20T09:13:43.088Z,20.42
2022-08-20T09:16:11.786Z,20.92
2022-08-20T09:18:40.143Z,18.60
2022-08-20T09:21:10.724Z,17.80
2022-08-20T09:23:39.046Z,20.70
2022-08-20T09:26:07.359Z,20.05
2022-08-20T09:28:37.209Z,20.50
2022-08-20T09:31:06.479Z,20.98
2022-08-20T09:33:36.066Z,19.40
2022-08-20T09:36:04.414Z,20.10
2022-08-20T09:38:53.705Z,19.85
2022-08-20T09:41:21.811Z,20.27
2022-08-20T09:43:49.855Z,19.13
2022-08-20T09:46:17.976Z,20.77
2022-08-20T09:48:45.956Z,20.15
2022-08-20T09:51:14.096Z,20.90
2022-08-20T09:53:42.791Z,22.33
2022-08-20T09:56:13.112Z,21.38
2022-08-20T09:58:49.705Z,21.35
2022-08-20T10:01:19.985Z,21.58
2022-08-20T10:03:49.256Z,22.13
2022-08-20T10:06:19.694Z,20.95
2022-08-20T10:08:48.444Z,19.70
2022-08-20T10:11:18.317Z,23.45
2022-08-20T10:13:46.361Z,20.55
2022-08-20T10:16:14.555Z,21.70
2022-08-20T10:18:42.602Z,22.25
2022-08-20T10:21:11.490Z,22.08
2022-08-20T10:23:39.678Z,20.95
2022-08-20T10:26:09.040Z,21.98
2022-08-20T10:28:38.622Z,20.77
2022-08-20T10:31:07.352Z,20.13
2022-08-20T10:33:36.306Z,19.98
2022-08-20T10:36:08.345Z,22.33
2022-08-20T10:38:36.334Z,21.10
2022-08-20T10:41:04.326Z,21.15
2022-08-20T10:43:32.450Z,21.08
2022-08-20T10:46:01.888Z,21.67
2022-08-20T10:48:29.954Z,22.58
2022-08-20T10:50:57.918Z,20.98
2022-08-20T10:53:25.905Z,20.90
2022-08-20T10:55:54.364Z,20.42
2022-08-20T10:58:23.949Z,20.63
2022-08-20T11:00:52.837Z,21.45
2022-08-20T11:03:22.222Z,20.25
2022-08-20T11:05:50.255Z,21.63
2022-08-20T11:08:33.817Z,21.55
2022-08-20T11:11:02.838Z,21.45
2022-08-20T11:13:30.809Z,22.17
2022-08-20T11:15:58.825Z,21.50
2022-08-20T11:18:28.233Z,21.52
2022-08-20T11:20:57.225Z,21.58
2022-08-20T11:23:25.521Z,21.30
2022-08-20T11:25:53.519Z,20.60
2022-08-20T11:28:31.910Z,20.63
2022-08-20T11:31:01.225Z,21.83
2022-08-20T11:33:30.718Z,21.10
2022-08-20T11:35:58.766Z,20.83
2022-08-20T11:38:26.990Z,20.20
2022-08-20T11:40:55.105Z,20.77
2022-08-20T11:43:23.218Z,21.00
2022-08-20T11:45:53.753Z,19.52
2022-08-20T11:48:22.133Z,19.55
2022-08-20T11:50:51.683Z,20.73
2022-08-20T11:53:22.642Z,19.55
2022-08-20T11:55:50.844Z,20.25
2022-08-20T11:58:19.040Z,20.02
2022-08-20T12:00:47.056Z,21.40
2022-08-20T12:03:15.127Z,18.90
2022-08-20T12:05:45.784Z,20.15
2022-08-20T12:08:27.440Z,20.02
2022-08-20T12:10:57.350Z,20.45
2022-08-20T12:13:30.891Z,19.55
2022-08-20T12:16:13.812Z,19.65
2022-08-20T12:18:41.866Z,20.35
2022-08-20T12:21:10.020Z,19.80
2022-08-20T12:23:39.384Z,19.58
2022-08-20T12:26:07.944Z,20.30
2022-08-20T12:28:36.001Z,20.13
2022-08-20T12:31:04.076Z,20.55
2022-08-20T12:33:32.161Z,19.77
2022-08-20T12:36:00.532Z,21.23
2022-08-20T12:38:28.649Z,21.23
2022-08-20T12:40:58.100Z,21.25
2022-08-20T12:43:26.221Z,22.88
2022-08-20T12:45:54.177Z,22.75
2022-08-20T12:48:22.172Z,22.73
2022-08-20T12:50:52.674Z,22.33
2022-08-20T12:53:20.608Z,22.30
2022-08-20T12:55:48.885Z,22.45
2022-08-20T12:58:19.432Z,22.25
2022-08-20T13:00:51.134Z,23.85
2022-08-20T13:03:20.505Z,23.88
2022-08-20T13:05:49.753Z,22.92
2022-08-20T13:08:19.487Z,24.92
2022-08-20T13:10:47.819Z,23.20
2022-08-20T13:13:20.860Z,22.63
2022-08-20T13:15:49.826Z,21.80
2022-08-20T13:18:17.920Z,20.95
2022-08-20T13:20:46.137Z,22.67
2022-08-20T13:23:14.241Z,22.20
2022-08-20T13:25:42.219Z,20.70
2022-08-20T13:28:10.287Z,20.83
2022-08-20T13:30:40.981Z,22.00
2022-08-20T13:33:09.140Z,22.13
2022-08-20T13:35:37.141Z,21.52
2022-08-20T13:38:05.259Z,21.85
2022-08-20T13:40:33.308Z,20.73
2022-08-20T13:43:05.934Z,20.85
2022-08-20T13:45:35.104Z,21.60
2022-08-20T13:48:06.880Z,20.48
2022-08-20T13:50:38.737Z,20.50
2022-08-20T13:53:07.240Z,20.10
2022-08-20T13:55:35.414Z,19.67
2022-08-20T13:58:07.887Z,21.00
2022-08-20T14:00:37.151Z,21.55
2022-08-20T14:03:07.987Z,21.55
2022-08-20T14:05:36.887Z,21.38
2022-08-20T14:08:09.831Z,22.45
2022-08-20T14:10:39.037Z,21.38
2022-08-20T14:13:08.892Z,21.08
2022-08-20T14:15:39.455Z,21.35
2022-08-20T14:18:09.335Z,21.63
2022-08-20T14:20:38.704Z,19.40
2022-08-20T14:23:07.308Z,21.70
2022-08-20T14:25:35.808Z,21.38
2022-08-20T14:28:12.184Z,21.00
2022-08-20T14:30:40.334Z,20.88
2022-08-20T14:33:09.835Z,22.60
2022-08-20T14:35:38.345Z,20.40
2022-08-20T14:38:06.575Z,22.52
2022-08-20T14:40:35.326Z,21.27
2022-08-20T14:43:03.569Z,21.05
2022-08-20T14:45:32.004Z,21.63
2022-08-20T14:48:00.159Z,20.13
2022-08-20T14:50:31.219Z,20.13
2022-08-20T14:52:59.850Z,19.70
2022-08-20T14:55:30.935Z,19.80
2022-08-20T14:57:59.136Z,20.30
2022-08-20T15:00:30.052Z,19.80
2022-08-20T15:02:58.721Z,18.80
2022-08-20T15:05:27.591Z,18.15
2022-08-20T15:07:59.568Z,19.15
2022-08-20T15:10:32.629Z,18.45
2022-08-20T15:13:01.483Z,19.30
2022-08-20T15:15:29.995Z,18.77
2022-08-20T15:18:01.112Z,19.88
2022-08-20T15:20:31.146Z,19.65
2022-08-20T15:23:01.491Z,19.83
2022-08-20T15:25:36.120Z,21.25
2022-08-20T15:28:06.630Z,21.45
2022-08-20T15:30:35.092Z,22.27
2022-08-20T15:33:03.372Z,20.88
2022-08-20T15:35:31.855Z,22.50
2022-08-20T15:38:01.557Z,21.13
2022-08-20T15:40:32.913Z,21.70
2022-08-20T15:43:04.320Z,21.27
2022-08-20T15:45:33.487Z,21.00
2022-08-20T15:48:11.016Z,21.40
2022-08-20T15:50:51.742Z,20.55
2022-08-20T15:53:28.115Z,21.95
2022-08-20T15:56:03.366Z,21.65
2022-08-20T15:58:39.573Z,21.23
2022-08-20T16:01:24.619Z,21.40
2022-08-20T16:04:25.962Z,20.55
2022-08-20T16:06:58.178Z,21.27
2022-08-20T16:09:49.049Z,21.98
2022-08-20T16:12:24.974Z,20.30
2022-08-20T16:15:00.697Z,22.25
2022-08-20T16:17:34.357Z,22.33
2022-08-20T16:20:08.381Z,21.90
2022-08-20T16:22:40.189Z,20.58
2022-08-20T16:25:10.461Z,21.05
2022-08-20T16:27:46.620Z,21.30
2022-08-20T16:30:21.910Z,21.67
2022-08-20T16:32:56.181Z,21.42
2022-08-20T16:35:30.380Z,21.08
2022-08-20T16:38:08.429Z,21.45
2022-08-20T16:40:49.534Z,22.15
2022-08-20T16:43:22.440Z,21.23
2022-08-20T16:45:54.825Z,21.77
2022-08-20T16:48:23.049Z,21.88
2022-08-20T16:50:59.976Z,21.92
2022-08-20T16:53:28.685Z,22.42
2022-08-20T16:55:58.265Z,22.55
2022-08-20T16:58:26.889Z,22.63
2022-08-20T17:01:08.432Z,21.90
2022-08-20T17:03:39.679Z,22.95
2022-08-20T17:06:20.417Z,23.23
2022-08-20T17:08:51.171Z,21.80
2022-08-20T17:11:27.187Z,22.92
2022-08-20T17:14:10.614Z,22.77
2022-08-20T17:16:42.105Z,23.10
2022-08-20T17:19:20.153Z,22.13
2022-08-20T17:21:50.637Z,22.17
2022-08-20T17:24:25.379Z,22.75
2022-08-20T17:27:00.700Z,23.10
2022-08-20T17:29:31.090Z,22.10
2022-08-20T17:32:01.404Z,22.40
2022-08-20T17:34:32.590Z,21.75
2022-08-20T17:37:04.383Z,21.50
2022-08-20T17:39:32.935Z,21.08
2022-08-20T17:42:10.216Z,22.25
2022-08-20T17:44:42.518Z,22.83
2022-08-20T17:47:14.999Z,21.38
2022-08-20T17:50:00.522Z,20.52
2022-08-20T17:52:35.072Z,20.35
2022-08-20T17:55:06.052Z,20.52
2022-08-20T17:57:41.167Z,20.90
2022-08-20T18:00:14.283Z,20.27
2022-08-20T18:02:42.887Z,20.63
2022-08-20T18:05:16.982Z,20.33
2022-08-20T18:08:02.546Z,19.92
2022-08-20T18:10:34.782Z,18.92
2022-08-20T18:13:11.579Z,20.50
2022-08-20T18:15:47.870Z,19.67
2022-08-20T18:18:26.098Z,21.75
2022-08-20T18:21:17.344Z,21.65
2022-08-20T18:23:50.027Z,20.27
2022-08-20T18:26:24.199Z,19.73
2022-08-20T18:28:59.961Z,19.90
2022-08-20T18:31:32.058Z,19.17
2022-08-20T18:34:11.843Z,19.55
2022-08-20T18:36:41.536Z,18.70
2022-08-20T18:39:12.623Z,18.83
2022-08-20T18:41:44.842Z,18.00
2022-08-20T18:44:16.550Z,13.95
2022-08-20T18:46:54.102Z,12.48
2022-08-20T18:49:30.633Z,12.18
2022-08-20T18:51:59.565Z,9.55
2022-08-20T18:54:30.566Z,5.22
2022-08-20T18:57:08.336Z,5.45
2022-08-20T18:59:43.823Z,4.60
2022-08-20T19:02:20.384Z,0.00
2022-08-20T19:04:59.715Z,0.10
2022-08-20T19:07:45.749Z,0.10
2022-08-20T19:10:38.445Z,0.10
2022-08-20T19:13:46.101Z,0.22
2022-08-20T19:16:20.717Z,0.10
2022-08-20T19:18:52.814Z,0.10
2022-08-20T19:21:27.871Z,0.10
2022-08-20T19:23:58.993Z,0.10
2022-08-20T19:26:31.265Z,0.15
2022-08-20T19:29:03.313Z,0.85
2022-08-20T19:31:34.881Z,0.10
2022-08-20T19:34:20.413Z,0.10
2022-08-20T19:36:56.111Z,0.20
2022-08-20T19:39:26.162Z,0.10
2022-08-20T19:41:58.017Z,0.10
2022-08-20T19:44:33.352Z,0.10
2022-08-20T19:47:03.403Z,0.10
2022-08-20T19:49:43.041Z,0.10
2022-08-20T19:52:23.107Z,0.10
2022-08-20T19:54:54.552Z,0.10
2022-08-20T19:57:25.105Z,0.10
2022-08-20T19:59:56.270Z,0.13
2022-08-20T20:02:27.664Z,0.10
2022-08-20T20:04:58.101Z,0.10
2022-08-20T20:07:29.333Z,0.10
2022-08-20T20:09:59.228Z,0.10
2022-08-20T20:12:27.302Z,0.10
2022-08-20T20:14:56.718Z,0.10
2022-08-20T20:17:30.997Z,0.10
2022-08-20T20:20:02.360Z,0.10
2022-08-20T20:22:32.866Z,0.10
2022-08-20T20:25:06.197Z,0.10
2022-08-20T20:27:36.575Z,0.10
2022-08-20T20:30:08.781Z,0.10
2022-08-20T20:32:41.982Z,0.10
2022-08-20T20:35:09.909Z,0.10
2022-08-20T20:37:47.913Z,0.00
2022-08-20T20:40:25.339Z,0.10
2022-08-20T20:43:02.805Z,0.00
2022-08-20T20:45:34.916Z,0.10
2022-08-20T20:48:15.107Z,0.10
2022-08-20T20:50:43.568Z,0.10
2022-08-20T20:53:12.304Z,0.10
2022-08-20T20:55:41.885Z,0.10
2022-08-20T20:58:09.883Z,0.10
2022-08-20T21:00:38.004Z,0.10
2022-08-20T21:03:07.331Z,0.08
2022-08-20T21:05:35.343Z,0.10
2022-08-20T21:08:07.328Z,0.10
2022-08-20T21:10:37.598Z,0.10
2022-08-20T21:13:07.883Z,0.10
2022-08-20T21:15:37.767Z,0.10
2022-08-20T21:18:09.148Z,0.10
2022-08-20T21:20:37.691Z,0.10
2022-08-20T21:23:06.399Z,0.10
2022-08-20T21:25:36.243Z,0.10
2022-08-20T21:28:05.411Z,0.10
2022-08-20T21:30:33.757Z,0.10
2022-08-20T21:33:01.959Z,0.10
2022-08-20T21:35:31.303Z,0.20
2022-08-20T21:37:59.351Z,0.10
2022-08-20T21:40:28.454Z,0.10
2022-08-20T21:42:57.432Z,0.10
2022-08-20T21:45:28.398Z,0.10
2022-08-20T21:47:57.130Z,0.10
2022-08-20T21:50:26.866Z,0.10
2022-08-20T21:52:59.833Z,0.10
2022-08-20T21:55:29.926Z,0.10
2022-08-20T21:57:58.830Z,0.10
2022-08-20T22:00:52.383Z,0.10
2022-08-20T22:03:22.694Z,0.10
2022-08-20T22:05:51.479Z,0.10
2022-08-20T22:08:28.504Z,0.10
2022-08-20T22:10:58.138Z,0.10
2022-08-20T22:13:28.282Z,0.00
2022-08-20T22:15:56.272Z,0.10
2022-08-20T22:18:24.386Z,0.10
2022-08-20T22:20:52.794Z,0.10
2022-08-20T22:23:22.150Z,0.10
2022-08-20T22:25:50.759Z,0.10
2022-08-20T22:28:19.877Z,0.10
2022-08-20T22:30:48.146Z,0.10
2022-08-20T22:33:20.853Z,0.10
2022-08-20T22:35:51.745Z,0.10
2022-08-20T22:38:21.496Z,0.10
2022-08-20T22:40:49.981Z,0.10
2022-08-20T22:43:18.381Z,0.10
2022-08-20T22:45:48.396Z,0.10
2022-08-20T22:48:18.784Z,0.10
2022-08-20T22:50:46.833Z,0.10
2022-08-20T22:53:16.904Z,0.10
2022-08-20T22:55:46.681Z,0.20
2022-08-20T22:58:16.224Z,0.10
2022-08-20T23:00:45.874Z,0.10
2022-08-20T23:03:15.465Z,0.10
2022-08-20T23:05:47.252Z,0.10
2022-08-20T23:08:15.712Z,0.10
2022-08-20T23:10:44.088Z,0.10
2022-08-20T23:13:13.441Z,0.10
2022-08-20T23:15:45.679Z,0.10
2022-08-20T23:18:16.105Z,0.10
2022-08-20T23:20:47.436Z,0.10
2022-08-20T23:23:15.476Z,0.10
2022-08-20T23:25:43.834Z,0.10
2022-08-20T23:28:13.382Z,0.10
2022-08-20T23:30:42.199Z,0.10
2022-08-20T23:33:10.204Z,0.10
2022-08-20T23:35:40.046Z,0.10
2022-08-20T23:38:09.087Z,0.10
2022-08-20T23:40:37.169Z,0.10
2022-08-20T23:43:06.079Z,0.10
2022-08-20T23:45:35.764Z,0.10
2022-08-20T23:48:08.343Z,0.10
2022-08-20T23:50:37.129Z,0.10
2022-08-20T23:53:06.039Z,0.10
2022-08-20T23:55:34.432Z,0.10
2022-08-20T23:58:02.578Z,0.10
